sensor_id;sensor_type;location;lat;lon;timestamp;pressure;altitude;pressure_sealevel;temperature;humidity
34235;BME280;20500;49.856;20.290;2022-07-29T00:02:06;99195.69;;;16.38;64.01
34235;BME280;20500;49.856;20.290;2022-07-29T00:05:13;99192.66;;;16.33;64.16
34235;BME280;20500;49.856;20.290;2022-07-29T00:08:17;99195.89;;;16.29;64.17
34235;BME280;20500;49.856;20.290;2022-07-29T00:11:23;99196.79;;;16.26;64.22
34235;BME280;20500;49.856;20.290;2022-07-29T00:14:29;99192.42;;;16.25;64.34
34235;BME280;20500;49.856;20.290;2022-07-29T00:17:36;99191.85;;;16.24;64.36
34235;BME280;20500;49.856;20.290;2022-07-29T00:20:42;99191.48;;;16.21;64.29
34235;BME280;20500;49.856;20.290;2022-07-29T00:23:46;99194.02;;;16.19;64.38
34235;BME280;20500;49.856;20.290;2022-07-29T00:26:52;99199.52;;;16.16;64.46
34235;BME280;20500;49.856;20.290;2022-07-29T00:29:59;99199.98;;;16.10;64.54
34235;BME280;20500;49.856;20.290;2022-07-29T00:33:05;99196.63;;;16.06;64.57
34235;BME280;20500;49.856;20.290;2022-07-29T00:36:12;99191.09;;;16.03;64.70
34235;BME280;20500;49.856;20.290;2022-07-29T00:39:17;99186.28;;;16.02;64.72
34235;BME280;20500;49.856;20.290;2022-07-29T00:42:23;99187.67;;;16.00;64.89
34235;BME280;20500;49.856;20.290;2022-07-29T00:45:27;99188.40;;;15.96;64.85
34235;BME280;20500;49.856;20.290;2022-07-29T00:48:34;99189.59;;;15.93;64.94
34235;BME280;20500;49.856;20.290;2022-07-29T00:51:41;99185.33;;;15.91;64.99
34235;BME280;20500;49.856;20.290;2022-07-29T00:54:47;99189.30;;;15.88;64.96
34235;BME280;20500;49.856;20.290;2022-07-29T00:57:53;99190.29;;;15.84;65.08
34235;BME280;20500;49.856;20.290;2022-07-29T01:01:00;99187.04;;;15.79;65.14
34235;BME280;20500;49.856;20.290;2022-07-29T01:04:08;99187.54;;;15.81;65.28
34235;BME280;20500;49.856;20.290;2022-07-29T01:07:14;99184.66;;;15.82;65.26
34235;BME280;20500;49.856;20.290;2022-07-29T01:10:21;99184.13;;;15.79;65.21
34235;BME280;20500;49.856;20.290;2022-07-29T01:13:31;99184.21;;;15.78;65.27
34235;BME280;20500;49.856;20.290;2022-07-29T01:16:42;99181.17;;;15.74;65.57
34235;BME280;20500;49.856;20.290;2022-07-29T01:20:09;99175.82;;;15.70;65.83
34235;BME280;20500;49.856;20.290;2022-07-29T01:23:48;99173.88;;;15.67;65.90
34235;BME280;20500;49.856;20.290;2022-07-29T01:27:01;99163.80;;;15.62;66.17
34235;BME280;20500;49.856;20.290;2022-07-29T01:30:12;99160.09;;;15.61;66.23
34235;BME280;20500;49.856;20.290;2022-07-29T01:33:21;99160.36;;;15.65;66.03
34235;BME280;20500;49.856;20.290;2022-07-29T01:36:50;99166.77;;;15.65;66.18
34235;BME280;20500;49.856;20.290;2022-07-29T01:40:00;99164.71;;;15.64;66.17
34235;BME280;20500;49.856;20.290;2022-07-29T01:43:12;99166.12;;;15.64;66.28
34235;BME280;20500;49.856;20.290;2022-07-29T01:46:24;99161.17;;;15.60;66.41
34235;BME280;20500;49.856;20.290;2022-07-29T01:49:33;99156.84;;;15.58;66.45
34235;BME280;20500;49.856;20.290;2022-07-29T01:52:44;99163.64;;;15.58;66.55
34235;BME280;20500;49.856;20.290;2022-07-29T01:55:53;99167.81;;;15.58;66.45
34235;BME280;20500;49.856;20.290;2022-07-29T01:59:03;99170.77;;;15.58;66.50
34235;BME280;20500;49.856;20.290;2022-07-29T02:02:12;99168.79;;;15.56;66.58
34235;BME280;20500;49.856;20.290;2022-07-29T02:05:21;99169.38;;;15.54;66.69
34235;BME280;20500;49.856;20.290;2022-07-29T02:08:29;99166.09;;;15.54;66.82
34235;BME280;20500;49.856;20.290;2022-07-29T02:11:38;99164.48;;;15.54;66.94
34235;BME280;20500;49.856;20.290;2022-07-29T02:14:49;99163.17;;;15.55;66.77
34235;BME280;20500;49.856;20.290;2022-07-29T02:17:58;99163.63;;;15.53;66.82
34235;BME280;20500;49.856;20.290;2022-07-29T02:21:06;99159.45;;;15.51;66.93
34235;BME280;20500;49.856;20.290;2022-07-29T02:24:19;99156.16;;;15.51;67.11
34235;BME280;20500;49.856;20.290;2022-07-29T02:27:44;99150.72;;;15.52;67.19
34235;BME280;20500;49.856;20.290;2022-07-29T02:30:54;99144.52;;;15.53;67.09
34235;BME280;20500;49.856;20.290;2022-07-29T02:34:02;99146.66;;;15.51;67.11
34235;BME280;20500;49.856;20.290;2022-07-29T02:37:10;99147.64;;;15.47;67.09
34235;BME280;20500;49.856;20.290;2022-07-29T02:40:18;99146.66;;;15.43;67.16
34235;BME280;20500;49.856;20.290;2022-07-29T02:43:25;99137.65;;;15.37;67.36
34235;BME280;20500;49.856;20.290;2022-07-29T02:46:33;99137.47;;;15.24;67.50
34235;BME280;20500;49.856;20.290;2022-07-29T02:49:46;99140.84;;;15.22;67.66
34235;BME280;20500;49.856;20.290;2022-07-29T02:53:00;99141.05;;;15.22;67.58
34235;BME280;20500;49.856;20.290;2022-07-29T02:56:13;99139.41;;;15.22;67.55
34235;BME280;20500;49.856;20.290;2022-07-29T02:59:25;99143.02;;;15.24;67.53
34235;BME280;20500;49.856;20.290;2022-07-29T03:02:35;99140.85;;;15.23;67.53
34235;BME280;20500;49.856;20.290;2022-07-29T03:05:42;99140.67;;;15.24;67.50
34235;BME280;20500;49.856;20.290;2022-07-29T03:08:49;99140.77;;;15.22;67.48
34235;BME280;20500;49.856;20.290;2022-07-29T03:11:56;99145.58;;;15.18;67.47
34235;BME280;20500;49.856;20.290;2022-07-29T03:15:03;99139.62;;;15.15;67.54
34235;BME280;20500;49.856;20.290;2022-07-29T03:18:09;99137.48;;;15.12;67.56
34235;BME280;20500;49.856;20.290;2022-07-29T03:21:16;99131.98;;;15.08;67.65
34235;BME280;20500;49.856;20.290;2022-07-29T03:24:30;99132.49;;;15.04;67.77
34235;BME280;20500;49.856;20.290;2022-07-29T03:27:37;99133.04;;;15.05;67.69
34235;BME280;20500;49.856;20.290;2022-07-29T03:30:41;99138.81;;;15.03;67.66
34235;BME280;20500;49.856;20.290;2022-07-29T03:33:48;99141.42;;;15.00;67.71
34235;BME280;20500;49.856;20.290;2022-07-29T03:36:54;99141.17;;;14.98;67.80
34235;BME280;20500;49.856;20.290;2022-07-29T03:39:58;99134.89;;;14.96;67.81
34235;BME280;20500;49.856;20.290;2022-07-29T03:43:06;99132.35;;;14.94;67.85
34235;BME280;20500;49.856;20.290;2022-07-29T03:46:15;99131.09;;;14.92;67.86
34235;BME280;20500;49.856;20.290;2022-07-29T03:49:23;99131.67;;;14.89;67.77
34235;BME280;20500;49.856;20.290;2022-07-29T03:52:29;99128.63;;;14.90;67.99
34235;BME280;20500;49.856;20.290;2022-07-29T03:55:40;99131.23;;;14.91;68.01
34235;BME280;20500;49.856;20.290;2022-07-29T03:58:47;99134.73;;;14.92;67.96
34235;BME280;20500;49.856;20.290;2022-07-29T04:01:54;99133.27;;;14.94;67.91
34235;BME280;20500;49.856;20.290;2022-07-29T04:05:02;99136.30;;;14.95;68.02
34235;BME280;20500;49.856;20.290;2022-07-29T04:08:09;99140.57;;;14.97;68.07
34235;BME280;20500;49.856;20.290;2022-07-29T04:11:15;99145.22;;;15.02;68.27
34235;BME280;20500;49.856;20.290;2022-07-29T04:14:19;99145.48;;;15.06;68.43
34235;BME280;20500;49.856;20.290;2022-07-29T04:17:26;99145.48;;;15.15;68.77
34235;BME280;20500;49.856;20.290;2022-07-29T04:20:30;99150.55;;;15.23;68.73
34235;BME280;20500;49.856;20.290;2022-07-29T04:23:37;99151.20;;;15.34;69.10
34235;BME280;20500;49.856;20.290;2022-07-29T04:26:57;99147.90;;;15.59;69.47
34235;BME280;20500;49.856;20.290;2022-07-29T04:30:04;99144.30;;;16.00;69.92
34235;BME280;20500;49.856;20.290;2022-07-29T04:33:11;99142.80;;;16.43;69.75
34235;BME280;20500;49.856;20.290;2022-07-29T04:36:17;99140.55;;;16.73;69.24
34235;BME280;20500;49.856;20.290;2022-07-29T04:39:33;99138.72;;;17.03;69.55
34235;BME280;20500;49.856;20.290;2022-07-29T04:42:39;99135.98;;;17.43;69.41
34235;BME280;20500;49.856;20.290;2022-07-29T04:45:51;99141.33;;;17.92;69.43
34235;BME280;20500;49.856;20.290;2022-07-29T04:48:57;99138.86;;;18.35;69.14
34235;BME280;20500;49.856;20.290;2022-07-29T04:52:03;99139.70;;;18.57;68.06
34235;BME280;20500;49.856;20.290;2022-07-29T04:55:10;99135.11;;;18.46;68.15
34235;BME280;20500;49.856;20.290;2022-07-29T04:58:16;99136.74;;;18.66;68.28
34235;BME280;20500;49.856;20.290;2022-07-29T05:01:21;99140.14;;;18.89;68.12
34235;BME280;20500;49.856;20.290;2022-07-29T05:04:27;99134.50;;;19.09;67.84
34235;BME280;20500;49.856;20.290;2022-07-29T05:07:32;99130.23;;;19.34;67.94
34235;BME280;20500;49.856;20.290;2022-07-29T05:10:38;99128.51;;;19.67;67.74
34235;BME280;20500;49.856;20.290;2022-07-29T05:13:44;99126.67;;;19.97;67.31
34235;BME280;20500;49.856;20.290;2022-07-29T05:16:50;99126.48;;;20.20;67.18
34235;BME280;20500;49.856;20.290;2022-07-29T05:19:57;99129.91;;;20.41;66.73
34235;BME280;20500;49.856;20.290;2022-07-29T05:23:03;99126.57;;;20.58;66.57
34235;BME280;20500;49.856;20.290;2022-07-29T05:26:08;99124.98;;;20.73;66.41
34235;BME280;20500;49.856;20.290;2022-07-29T05:29:14;99125.92;;;20.87;66.17
34235;BME280;20500;49.856;20.290;2022-07-29T05:32:39;99122.70;;;21.04;66.00
34235;BME280;20500;49.856;20.290;2022-07-29T05:35:45;99118.07;;;21.08;65.71
34235;BME280;20500;49.856;20.290;2022-07-29T05:38:50;99114.14;;;21.03;65.51
34235;BME280;20500;49.856;20.290;2022-07-29T05:41:56;99117.73;;;20.99;65.38
34235;BME280;20500;49.856;20.290;2022-07-29T05:45:02;99115.59;;;21.00;65.43
34235;BME280;20500;49.856;20.290;2022-07-29T05:48:09;99111.36;;;21.08;65.26
34235;BME280;20500;49.856;20.290;2022-07-29T05:51:14;99112.48;;;21.19;64.98
34235;BME280;20500;49.856;20.290;2022-07-29T05:54:20;99114.73;;;21.41;64.75
34235;BME280;20500;49.856;20.290;2022-07-29T05:57:25;99113.46;;;21.35;64.15
34235;BME280;20500;49.856;20.290;2022-07-29T06:00:31;99112.41;;;21.14;64.18
34235;BME280;20500;49.856;20.290;2022-07-29T06:03:35;99111.48;;;21.08;64.10
34235;BME280;20500;49.856;20.290;2022-07-29T06:06:41;99113.46;;;21.24;64.27
34235;BME280;20500;49.856;20.290;2022-07-29T06:09:47;99118.70;;;21.28;63.57
34235;BME280;20500;49.856;20.290;2022-07-29T06:12:53;99122.06;;;21.15;63.75
34235;BME280;20500;49.856;20.290;2022-07-29T06:15:57;99123.20;;;21.41;63.98
34235;BME280;20500;49.856;20.290;2022-07-29T06:19:03;99115.97;;;21.74;63.65
34235;BME280;20500;49.856;20.290;2022-07-29T06:22:08;99118.74;;;21.85;63.20
34235;BME280;20500;49.856;20.290;2022-07-29T06:25:14;99118.36;;;21.81;62.98
34235;BME280;20500;49.856;20.290;2022-07-29T06:28:20;99120.67;;;21.77;62.89
34235;BME280;20500;49.856;20.290;2022-07-29T06:31:26;99119.07;;;21.84;63.25
34235;BME280;20500;49.856;20.290;2022-07-29T06:34:31;99120.05;;;22.06;63.02
34235;BME280;20500;49.856;20.290;2022-07-29T06:37:37;99111.52;;;22.31;62.83
34235;BME280;20500;49.856;20.290;2022-07-29T06:40:46;99112.02;;;22.56;62.60
34235;BME280;20500;49.856;20.290;2022-07-29T06:44:08;99112.79;;;22.80;62.21
34235;BME280;20500;49.856;20.290;2022-07-29T06:47:14;99107.63;;;22.90;61.83
34235;BME280;20500;49.856;20.290;2022-07-29T06:50:19;99108.94;;;23.07;61.98
34235;BME280;20500;49.856;20.290;2022-07-29T06:53:25;99109.89;;;23.14;61.50
34235;BME280;20500;49.856;20.290;2022-07-29T06:56:32;99111.48;;;23.17;61.34
34235;BME280;20500;49.856;20.290;2022-07-29T06:59:43;99108.43;;;23.25;61.00
34235;BME280;20500;49.856;20.290;2022-07-29T07:02:48;99107.45;;;23.34;60.99
34235;BME280;20500;49.856;20.290;2022-07-29T07:05:55;99109.05;;;23.51;60.71
34235;BME280;20500;49.856;20.290;2022-07-29T07:09:03;99111.61;;;23.53;60.29
34235;BME280;20500;49.856;20.290;2022-07-29T07:12:09;99116.69;;;23.62;60.26
34235;BME280;20500;49.856;20.290;2022-07-29T07:15:16;99115.55;;;23.66;59.83
34235;BME280;20500;49.856;20.290;2022-07-29T07:18:41;99114.56;;;23.87;59.91
34235;BME280;20500;49.856;20.290;2022-07-29T07:21:49;99117.45;;;24.03;59.41
34235;BME280;20500;49.856;20.290;2022-07-29T07:24:55;99116.27;;;24.13;59.05
34235;BME280;20500;49.856;20.290;2022-07-29T07:28:00;99111.32;;;24.12;58.85
34235;BME280;20500;49.856;20.290;2022-07-29T07:31:06;99116.92;;;24.18;58.72
34235;BME280;20500;49.856;20.290;2022-07-29T07:34:10;99117.64;;;24.20;58.43
34235;BME280;20500;49.856;20.290;2022-07-29T07:37:16;99117.02;;;24.17;58.34
34235;BME280;20500;49.856;20.290;2022-07-29T07:40:24;99116.48;;;24.33;58.34
34235;BME280;20500;49.856;20.290;2022-07-29T07:43:29;99113.24;;;24.48;57.94
34235;BME280;20500;49.856;20.290;2022-07-29T07:46:35;99117.11;;;24.66;57.93
34235;BME280;20500;49.856;20.290;2022-07-29T07:49:42;99121.16;;;24.82;57.58
34235;BME280;20500;49.856;20.290;2022-07-29T07:52:47;99122.45;;;24.67;56.98
34235;BME280;20500;49.856;20.290;2022-07-29T07:55:53;99115.66;;;24.67;56.96
34235;BME280;20500;49.856;20.290;2022-07-29T07:59:16;99109.84;;;24.78;56.89
34235;BME280;20500;49.856;20.290;2022-07-29T08:02:20;99109.67;;;24.80;56.81
34235;BME280;20500;49.856;20.290;2022-07-29T08:05:25;99109.01;;;24.76;56.41
34235;BME280;20500;49.856;20.290;2022-07-29T08:08:31;99105.70;;;24.90;56.49
34235;BME280;20500;49.856;20.290;2022-07-29T08:11:37;99105.70;;;25.12;56.16
34235;BME280;20500;49.856;20.290;2022-07-29T08:14:54;99101.98;;;25.16;55.98
34235;BME280;20500;49.856;20.290;2022-07-29T08:17:58;99106.83;;;25.23;55.91
34235;BME280;20500;49.856;20.290;2022-07-29T08:21:11;99100.32;;;25.32;55.63
34235;BME280;20500;49.856;20.290;2022-07-29T08:24:18;99110.70;;;25.37;55.11
34235;BME280;20500;49.856;20.290;2022-07-29T08:27:41;99110.58;;;25.35;55.01
34235;BME280;20500;49.856;20.290;2022-07-29T08:30:47;99108.07;;;25.38;55.14
34235;BME280;20500;49.856;20.290;2022-07-29T08:33:54;99107.40;;;25.46;54.99
34235;BME280;20500;49.856;20.290;2022-07-29T08:37:02;99111.98;;;25.71;54.83
34235;BME280;20500;49.856;20.290;2022-07-29T08:40:09;99113.48;;;25.80;54.38
34235;BME280;20500;49.856;20.290;2022-07-29T08:43:14;99111.18;;;25.70;53.98
34235;BME280;20500;49.856;20.290;2022-07-29T08:46:18;99110.30;;;25.56;54.21
34235;BME280;20500;49.856;20.290;2022-07-29T08:49:24;99108.40;;;25.57;53.98
34235;BME280;20500;49.856;20.290;2022-07-29T08:52:31;99111.18;;;25.75;53.98
34235;BME280;20500;49.856;20.290;2022-07-29T08:55:40;99111.75;;;25.79;53.66
34235;BME280;20500;49.856;20.290;2022-07-29T08:58:47;99114.77;;;25.56;53.26
34235;BME280;20500;49.856;20.290;2022-07-29T09:01:56;99103.95;;;25.53;53.61
34235;BME280;20500;49.856;20.290;2022-07-29T09:05:06;99111.64;;;25.68;53.08
34235;BME280;20500;49.856;20.290;2022-07-29T09:08:12;99106.17;;;25.59;53.00
34235;BME280;20500;49.856;20.290;2022-07-29T09:11:18;99104.45;;;25.76;53.14
34235;BME280;20500;49.856;20.290;2022-07-29T09:14:24;99101.04;;;25.86;52.93
34235;BME280;20500;49.856;20.290;2022-07-29T09:17:40;99098.32;;;25.81;52.57
34235;BME280;20500;49.856;20.290;2022-07-29T09:20:52;99092.63;;;25.85;52.65
34235;BME280;20500;49.856;20.290;2022-07-29T09:24:15;99091.95;;;25.88;52.35
34235;BME280;20500;49.856;20.290;2022-07-29T09:27:21;99081.08;;;26.04;52.73
34235;BME280;20500;49.856;20.290;2022-07-29T09:30:27;99083.96;;;26.28;52.45
34235;BME280;20500;49.856;20.290;2022-07-29T09:33:35;99081.41;;;26.37;52.28
34235;BME280;20500;49.856;20.290;2022-07-29T09:36:45;99076.48;;;26.48;52.09
34235;BME280;20500;49.856;20.290;2022-07-29T09:39:51;99081.01;;;26.46;51.79
34235;BME280;20500;49.856;20.290;2022-07-29T09:42:57;99078.78;;;26.38;51.69
34235;BME280;20500;49.856;20.290;2022-07-29T09:46:12;99074.54;;;26.41;51.77
34235;BME280;20500;49.856;20.290;2022-07-29T09:49:18;99070.45;;;26.51;51.64
34235;BME280;20500;49.856;20.290;2022-07-29T09:52:24;99072.93;;;26.55;51.30
34235;BME280;20500;49.856;20.290;2022-07-29T09:55:31;99066.17;;;26.42;51.19
34235;BME280;20500;49.856;20.290;2022-07-29T09:58:37;99076.70;;;26.42;51.32
34235;BME280;20500;49.856;20.290;2022-07-29T10:01:41;99064.30;;;26.35;51.11
34235;BME280;20500;49.856;20.290;2022-07-29T10:04:47;99062.70;;;26.44;51.06
34235;BME280;20500;49.856;20.290;2022-07-29T10:07:55;99060.38;;;26.55;50.84
34235;BME280;20500;49.856;20.290;2022-07-29T10:11:10;99052.73;;;26.53;50.72
34235;BME280;20500;49.856;20.290;2022-07-29T10:14:16;99049.98;;;26.69;50.72
34235;BME280;20500;49.856;20.290;2022-07-29T10:17:23;99049.52;;;26.68;50.26
34235;BME280;20500;49.856;20.290;2022-07-29T10:20:29;99049.06;;;26.70;50.45
34235;BME280;20500;49.856;20.290;2022-07-29T10:23:35;99056.17;;;26.77;50.02
34235;BME280;20500;49.856;20.290;2022-07-29T10:26:50;99053.89;;;26.75;50.05
34235;BME280;20500;49.856;20.290;2022-07-29T10:29:56;99051.95;;;26.82;49.79
34235;BME280;20500;49.856;20.290;2022-07-29T10:33:08;99048.33;;;26.96;49.82
34235;BME280;20500;49.856;20.290;2022-07-29T10:36:27;99045.92;;;27.04;49.61
34235;BME280;20500;49.856;20.290;2022-07-29T10:39:51;99039.98;;;27.18;49.64
34235;BME280;20500;49.856;20.290;2022-07-29T10:43:06;99035.98;;;27.41;49.56
34235;BME280;20500;49.856;20.290;2022-07-29T10:46:19;99036.41;;;27.43;49.34
34235;BME280;20500;49.856;20.290;2022-07-29T10:49:29;99036.86;;;27.48;49.08
34235;BME280;20500;49.856;20.290;2022-07-29T10:52:53;99040.92;;;27.32;48.90
34235;BME280;20500;49.856;20.290;2022-07-29T10:56:00;99032.94;;;27.01;48.65
34235;BME280;20500;49.856;20.290;2022-07-29T10:59:25;99031.83;;;26.85;48.78
34235;BME280;20500;49.856;20.290;2022-07-29T11:02:44;99031.88;;;26.85;48.67
34235;BME280;20500;49.856;20.290;2022-07-29T11:05:57;99028.92;;;26.92;48.51
34235;BME280;20500;49.856;20.290;2022-07-29T11:09:20;99027.15;;;26.98;48.46
34235;BME280;20500;49.856;20.290;2022-07-29T11:12:50;99028.88;;;26.97;48.22
34235;BME280;20500;49.856;20.290;2022-07-29T11:15:57;99018.28;;;27.03;48.51
34235;BME280;20500;49.856;20.290;2022-07-29T11:19:22;99024.69;;;27.15;48.06
34235;BME280;20500;49.856;20.290;2022-07-29T11:22:35;99013.40;;;27.15;48.16
34235;BME280;20500;49.856;20.290;2022-07-29T11:26:15;99013.27;;;27.31;47.94
34235;BME280;20500;49.856;20.290;2022-07-29T11:29:22;99005.62;;;27.52;47.55
34235;BME280;20500;49.856;20.290;2022-07-29T11:32:40;99001.89;;;27.80;47.67
34235;BME280;20500;49.856;20.290;2022-07-29T11:36:08;99000.05;;;27.89;47.32
34235;BME280;20500;49.856;20.290;2022-07-29T11:39:30;98993.39;;;27.85;47.36
34235;BME280;20500;49.856;20.290;2022-07-29T11:42:44;98987.70;;;27.92;47.26
34235;BME280;20500;49.856;20.290;2022-07-29T11:45:50;98984.49;;;27.99;47.24
34235;BME280;20500;49.856;20.290;2022-07-29T11:48:57;98983.21;;;28.07;47.01
34235;BME280;20500;49.856;20.290;2022-07-29T11:52:03;98976.02;;;28.10;46.83
34235;BME280;20500;49.856;20.290;2022-07-29T11:55:15;98976.64;;;28.04;46.63
34235;BME280;20500;49.856;20.290;2022-07-29T11:58:23;98983.62;;;27.92;46.69
34235;BME280;20500;49.856;20.290;2022-07-29T12:01:29;98974.92;;;28.07;46.55
34235;BME280;20500;49.856;20.290;2022-07-29T12:04:49;98972.57;;;28.16;46.49
34235;BME280;20500;49.856;20.290;2022-07-29T12:07:55;98966.79;;;28.30;46.27
34235;BME280;20500;49.856;20.290;2022-07-29T12:11:01;98965.66;;;28.41;46.23
34235;BME280;20500;49.856;20.290;2022-07-29T12:14:07;98958.30;;;28.41;45.70
34235;BME280;20500;49.856;20.290;2022-07-29T12:17:26;98959.09;;;28.56;45.88
34235;BME280;20500;49.856;20.290;2022-07-29T12:20:34;98962.42;;;28.70;45.59
34235;BME280;20500;49.856;20.290;2022-07-29T12:23:53;98962.70;;;28.81;45.74
34235;BME280;20500;49.856;20.290;2022-07-29T12:27:08;98955.96;;;28.71;45.08
34235;BME280;20500;49.856;20.290;2022-07-29T12:30:17;98954.52;;;28.66;45.20
34235;BME280;20500;49.856;20.290;2022-07-29T12:33:24;98953.97;;;28.55;44.76
34235;BME280;20500;49.856;20.290;2022-07-29T12:36:30;98951.54;;;28.57;45.08
34235;BME280;20500;49.856;20.290;2022-07-29T12:39:36;98954.79;;;28.74;44.65
34235;BME280;20500;49.856;20.290;2022-07-29T12:42:42;98951.48;;;28.75;44.67
34235;BME280;20500;49.856;20.290;2022-07-29T12:46:14;98946.88;;;28.87;44.31
34235;BME280;20500;49.856;20.290;2022-07-29T12:49:23;98949.26;;;28.91;43.91
34235;BME280;20500;49.856;20.290;2022-07-29T12:52:31;98935.52;;;28.87;44.30
34235;BME280;20500;49.856;20.290;2022-07-29T12:55:47;98928.27;;;28.84;44.16
34235;BME280;20500;49.856;20.290;2022-07-29T12:58:55;98918.85;;;28.76;43.61
34235;BME280;20500;49.856;20.290;2022-07-29T13:02:01;98912.14;;;28.75;43.80
34235;BME280;20500;49.856;20.290;2022-07-29T13:05:09;98913.56;;;28.70;43.32
34235;BME280;20500;49.856;20.290;2022-07-29T13:08:17;98909.02;;;28.53;43.23
34235;BME280;20500;49.856;20.290;2022-07-29T13:11:34;98907.77;;;28.43;43.23
34235;BME280;20500;49.856;20.290;2022-07-29T13:14:41;98905.81;;;28.39;43.18
34235;BME280;20500;49.856;20.290;2022-07-29T13:17:47;98902.97;;;28.38;43.04
34235;BME280;20500;49.856;20.290;2022-07-29T13:20:53;98901.16;;;28.39;42.93
34235;BME280;20500;49.856;20.290;2022-07-29T13:23:58;98895.70;;;28.38;42.76
34235;BME280;20500;49.856;20.290;2022-07-29T13:27:04;98892.63;;;28.41;42.80
34235;BME280;20500;49.856;20.290;2022-07-29T13:30:11;98891.34;;;28.41;42.80
34235;BME280;20500;49.856;20.290;2022-07-29T13:33:17;98892.45;;;28.36;42.60
34235;BME280;20500;49.856;20.290;2022-07-29T13:36:22;98887.81;;;28.28;42.55
34235;BME280;20500;49.856;20.290;2022-07-29T13:39:28;98883.45;;;28.24;42.51
34235;BME280;20500;49.856;20.290;2022-07-29T13:42:34;98880.23;;;28.22;42.66
34235;BME280;20500;49.856;20.290;2022-07-29T13:45:40;98873.35;;;28.10;42.25
34235;BME280;20500;49.856;20.290;2022-07-29T13:48:46;98869.55;;;28.07;42.59
34235;BME280;20500;49.856;20.290;2022-07-29T13:51:51;98865.52;;;28.10;42.55
34235;BME280;20500;49.856;20.290;2022-07-29T13:54:57;98871.39;;;28.22;42.62
34235;BME280;20500;49.856;20.290;2022-07-29T13:58:02;98868.84;;;28.31;42.57
34235;BME280;20500;49.856;20.290;2022-07-29T14:01:08;98866.37;;;28.37;42.67
34235;BME280;20500;49.856;20.290;2022-07-29T14:04:14;98858.12;;;28.38;42.47
34235;BME280;20500;49.856;20.290;2022-07-29T14:07:19;98853.54;;;28.38;42.65
34235;BME280;20500;49.856;20.290;2022-07-29T14:10:25;98847.57;;;28.39;42.75
34235;BME280;20500;49.856;20.290;2022-07-29T14:13:31;98853.63;;;28.39;42.60
34235;BME280;20500;49.856;20.290;2022-07-29T14:16:37;98860.20;;;28.37;42.55
34235;BME280;20500;49.856;20.290;2022-07-29T14:19:52;98856.34;;;28.28;42.44
34235;BME280;20500;49.856;20.290;2022-07-29T14:22:57;98842.93;;;28.08;42.59
34235;BME280;20500;49.856;20.290;2022-07-29T14:26:03;98841.15;;;27.89;42.59
34235;BME280;20500;49.856;20.290;2022-07-29T14:29:12;98841.48;;;27.66;42.60
34235;BME280;20500;49.856;20.290;2022-07-29T14:32:18;98840.49;;;27.47;42.56
34235;BME280;20500;49.856;20.290;2022-07-29T14:35:23;98834.31;;;27.28;42.73
34235;BME280;20500;49.856;20.290;2022-07-29T14:38:29;98828.70;;;27.13;42.70
34235;BME280;20500;49.856;20.290;2022-07-29T14:41:35;98825.64;;;27.00;42.93
34235;BME280;20500;49.856;20.290;2022-07-29T14:44:41;98820.83;;;26.90;43.02
34235;BME280;20500;49.856;20.290;2022-07-29T14:47:48;98818.98;;;26.80;43.02
34235;BME280;20500;49.856;20.290;2022-07-29T14:51:00;98815.98;;;26.72;43.33
34235;BME280;20500;49.856;20.290;2022-07-29T14:54:08;98810.36;;;26.65;43.53
34235;BME280;20500;49.856;20.290;2022-07-29T14:57:14;98804.45;;;26.58;43.60
34235;BME280;20500;49.856;20.290;2022-07-29T15:00:20;98808.67;;;26.48;43.89
34235;BME280;20500;49.856;20.290;2022-07-29T15:03:26;98824.48;;;26.44;44.09
34235;BME280;20500;49.856;20.290;2022-07-29T15:06:32;98843.95;;;26.43;44.22
34235;BME280;20500;49.856;20.290;2022-07-29T15:09:38;98859.50;;;26.42;44.40
34235;BME280;20500;49.856;20.290;2022-07-29T15:12:53;98863.02;;;26.34;44.69
34235;BME280;20500;49.856;20.290;2022-07-29T15:15:58;98862.79;;;26.27;44.83
34235;BME280;20500;49.856;20.290;2022-07-29T15:19:04;98859.47;;;26.22;45.07
34235;BME280;20500;49.856;20.290;2022-07-29T15:22:10;98858.35;;;26.14;45.09
34235;BME280;20500;49.856;20.290;2022-07-29T15:25:16;98858.07;;;26.07;45.26
34235;BME280;20500;49.856;20.290;2022-07-29T15:28:20;98858.29;;;26.00;45.54
34235;BME280;20500;49.856;20.290;2022-07-29T15:31:25;98852.69;;;25.93;45.73
34235;BME280;20500;49.856;20.290;2022-07-29T15:34:31;98840.36;;;25.86;45.86
34235;BME280;20500;49.856;20.290;2022-07-29T15:37:36;98835.41;;;25.79;45.98
34235;BME280;20500;49.856;20.290;2022-07-29T15:40:52;98825.57;;;25.72;46.11
34235;BME280;20500;49.856;20.290;2022-07-29T15:43:56;98824.38;;;25.65;46.19
34235;BME280;20500;49.856;20.290;2022-07-29T15:47:02;98823.79;;;25.60;46.54
34235;BME280;20500;49.856;20.290;2022-07-29T15:50:07;98828.55;;;25.54;46.62
34235;BME280;20500;49.856;20.290;2022-07-29T15:53:17;98839.02;;;25.47;46.87
34235;BME280;20500;49.856;20.290;2022-07-29T15:56:21;98845.29;;;25.40;46.96
34235;BME280;20500;49.856;20.290;2022-07-29T15:59:27;98845.24;;;25.33;47.09
34235;BME280;20500;49.856;20.290;2022-07-29T16:02:31;98850.51;;;25.27;47.25
34235;BME280;20500;49.856;20.290;2022-07-29T16:05:37;98864.86;;;25.19;47.45
34235;BME280;20500;49.856;20.290;2022-07-29T16:08:41;98900.75;;;25.14;47.61
34235;BME280;20500;49.856;20.290;2022-07-29T16:11:47;98931.55;;;25.04;47.77
34235;BME280;20500;49.856;20.290;2022-07-29T16:14:54;98948.42;;;24.80;47.77
34235;BME280;20500;49.856;20.290;2022-07-29T16:17:59;98951.06;;;24.49;47.86
34235;BME280;20500;49.856;20.290;2022-07-29T16:21:06;98960.02;;;24.14;48.15
34235;BME280;20500;49.856;20.290;2022-07-29T16:24:11;98983.35;;;23.70;48.40
34235;BME280;20500;49.856;20.290;2022-07-29T16:27:17;99002.17;;;23.25;48.72